Latest Weather Observations for Westmere

IDV60801

Issued at 9:05 pm EDT Saturday 25 October 2014 (issued every 30 minutes, with the page automatically refreshed every 10 minutes)

About weather observations | Map of weather stations | Latest weather observations for VIC | Other Formats
Station Details ID: 089112 Name: WESTMERE Lat: -37.71 Lon: 142.94 Height: 226.0 m
Data from the previous 72 hours. | See also: Recent months at Westmere
Date/Time
EDT
Temp
°C
App
Temp
°C
Dew
Point
Rel
Hum
%
Delta-T
°C
Wind Press
QNH
hPa
Press
MSL
hPa
Rain
since 9 am
mm
Dir
 
Spd
km/h
Gust
km/h
Spd
kts
Gust
kts
25/09:00pm 10.6 8.9 10.0 96 0.3 SSW 9 15 5 8 1016.7 1016.8 0.0
25/08:30pm 11.8 9.8 10.2 90 0.8 SSW 11 17 6 9 1016.2 1016.3 0.0
25/08:00pm 12.8 11.3 10.7 87 1.1 SSW 9 13 5 7 1015.9 1016.0 0.0
25/07:30pm 14.4 11.9 11.0 80 1.8 SSW 15 22 8 12 1015.5 1015.5 0.0
25/07:00pm 15.9 13.5 11.5 75 2.4 S 15 20 8 11 1015.1 1015.1 0.0
25/06:30pm 16.5 14.2 11.9 74 2.5 S 15 22 8 12 1015.0 1015.0 0.0
25/06:00pm 17.6 14.5 11.6 68 3.3 SSW 19 28 10 15 1015.0 1015.0 0.0
25/05:30pm 19.0 15.8 11.8 63 4.0 S 20 32 11 17 1014.8 1014.8 0.0
25/05:00pm 19.6 16.4 11.9 61 4.3 SSW 20 30 11 16 1014.8 1014.8 0.0
25/04:30pm 20.9 18.0 12.3 58 4.9 SSW 19 28 10 15 1014.4 1014.4 0.0
25/04:00pm 21.8 19.1 11.8 53 5.7 S 17 26 9 14 1014.4 1014.4 0.0
25/03:30pm 21.8 19.8 11.5 52 5.8 S 13 24 7 13 1014.5 1014.5 0.0
25/03:00pm 21.7 19.5 10.8 50 6.1 S 13 24 7 13 1014.7 1014.7 0.0
25/02:30pm 21.3 19.3 11.6 54 5.5 S 13 20 7 11 1015.2 1015.2 0.0
25/02:00pm 19.7 17.9 10.9 57 4.8 S 11 19 6 10 1015.4 1015.4 0.0
25/01:30pm 19.1 18.2 11.2 60 4.4 SE 7 17 4 9 1015.8 1015.9 0.0
25/01:00pm 17.8 16.7 10.7 63 3.9 SSE 7 11 4 6 1016.0 1016.1 0.0
25/12:30pm 16.4 14.9 10.7 69 3.1 SSE 9 15 5 8 1016.6 1016.7 0.0
25/12:00pm 15.3 14.3 10.9 75 2.4 SSE 7 11 4 6 1017.4 1017.4 0.0
25/11:30am 15.3 14.0 11.3 77 2.2 ESE 9 13 5 7 1017.3 1017.3 0.0
25/11:00am 14.3 13.0 11.1 81 1.7 ESE 9 17 5 9 1017.5 1017.5 0.0
25/10:30am 13.3 11.3 10.3 82 1.6 SE 11 19 6 10 1017.7 1017.7 0.0
25/10:00am 13.0 11.1 10.4 84 1.4 SE 11 20 6 11 1017.6 1017.6 0.0
25/09:30am 12.6 10.3 10.5 87 1.1 S 13 20 7 11 1017.5 1017.5 0.0
25/09:00am 12.1 9.9 10.8 92 0.7 SSE 13 20 7 11 1017.5 1017.5 0.2
25/08:30am 11.4 9.2 10.8 96 0.3 SSE 13 20 7 11 1017.5 1017.5 0.2
25/08:00am 11.0 9.6 10.8 99 0.1 ESE 9 15 5 8 1017.6 1017.6 0.2
25/07:30am 10.6 9.1 10.4 99 0.1 ESE 9 13 5 7 1017.4 1017.4 0.2
25/07:00am 10.7 9.8 10.5 99 0.1 SSE 6 7 3 4 1017.3 1017.3 0.2
25/06:30am 10.4 8.5 10.4 100 0.0 SSE 11 17 6 9 1016.8 1016.9 0.2
25/06:00am 10.9 9.5 10.9 100 0.0 S 9 13 5 7 1016.5 1016.6 0.2
25/05:30am 10.9 9.5 10.9 100 0.0 SSE 9 13 5 7 1016.5 1016.6 0.2
25/05:00am 11.1 9.0 11.1 100 0.0 S 13 19 7 10 1016.4 1016.5 0.2
25/04:30am 11.4 11.0 11.2 99 0.1 S 4 6 2 3 1016.3 1016.4 0.0
25/04:00am 11.4 11.0 11.2 99 0.1 S 4 6 2 3 1016.3 1016.4 0.0
25/03:30am 11.7 10.8 11.5 99 0.1 S 7 11 4 6 1016.2 1016.3 0.0
25/03:00am 12.0 11.2 10.9 93 0.6 S 6 9 3 5 1016.4 1016.5 0.0
25/02:30am 12.2 10.3 10.6 90 0.8 S 11 15 6 8 1016.6 1016.7 0.0
25/02:00am 12.2 10.6 10.3 88 1.0 SSW 9 15 5 8 1016.8 1016.9 0.0
25/01:30am 12.5 11.0 10.7 89 0.9 S 9 17 5 9 1016.9 1017.0 0.0
25/01:00am 12.6 11.2 10.8 89 0.9 S 9 15 5 8 1017.4 1017.4 0.0
25/12:30am 12.7 11.8 11.3 91 0.7 SSW 7 11 4 6 1017.3 1017.3 0.0
25/12:00am 12.7 11.1 11.4 92 0.7 SW 11 17 6 9 1017.2 1017.2 0.0
 
Date/Time
EDT
Temp
°C
App
Temp
°C
Dew
Point
Rel
Hum
%
Delta-T
°C
Wind Press
QNH
hPa
Press
MSL
hPa
Rain
since 9 am
mm
Dir
 
Spd
km/h
Gust
km/h
Spd
kts
Gust
kts
24/11:30pm 12.7 10.7 11.4 92 0.7 SW 13 19 7 10 1017.0 1017.1 0.0
24/11:00pm 12.9 11.3 11.6 92 0.7 SW 11 15 6 8 1016.9 1017.0 0.0
24/10:30pm 13.0 11.6 12.1 94 0.5 SW 11 19 6 10 1016.7 1016.8 0.0
24/10:00pm 13.0 10.8 12.2 95 0.4 SSW 15 20 8 11 1016.6 1016.7 0.0
24/09:30pm 12.7 11.0 12.4 98 0.2 SSW 13 22 7 12 1016.4 1016.5 0.0
24/09:00pm 13.0 11.6 12.2 95 0.4 SSW 11 17 6 9 1015.7 1015.7 0.0
24/08:30pm 13.6 12.1 13.0 96 0.3 SSW 13 20 7 11 1015.3 1015.3 0.0
24/08:00pm 14.8 13.1 13.5 92 0.7 SSW 15 22 8 12 1014.6 1014.6 0.0
24/07:30pm 16.8 15.3 14.3 85 1.4 SSW 15 26 8 14 1013.9 1013.9 0.0
24/07:00pm 20.4 18.2 15.0 71 3.2 SSW 20 26 11 14 1013.2 1013.2 0.0
24/06:30pm 23.9 20.4 10.9 44 7.3 WSW 20 32 11 17 1012.6 1012.6 0.0
24/06:00pm 24.6 20.2 10.5 41 7.9 WSW 24 32 13 17 1012.1 1012.2 0.0
24/05:30pm 25.1 20.8 9.4 37 8.7 WSW 22 32 12 17 1011.8 1011.8 0.0
24/05:00pm 25.8 21.0 7.4 31 9.8 WSW 22 33 12 18 1011.7 1011.7 0.0
24/04:30pm 27.6 23.0 8.0 29 10.7 W 22 37 12 20 1011.4 1011.4 0.0
24/04:00pm 27.8 23.4 9.1 31 10.4 W 22 33 12 18 1011.4 1011.4 0.0
24/03:30pm 28.1 23.9 8.4 29 10.8 W 20 30 11 16 1011.4 1011.4 0.0
24/03:00pm 28.4 24.5 8.7 29 10.9 W 19 32 10 17 1011.4 1011.4 0.0
24/02:30pm 28.3 24.6 9.6 31 10.5 W 19 33 10 18 1011.6 1011.6 0.0
24/02:00pm 28.0 24.0 8.3 29 10.8 W 19 30 10 16 1011.8 1011.8 0.0
24/01:30pm 27.3 22.7 6.7 27 11.0 W 20 35 11 19 1011.8 1011.8 0.0
24/01:00pm 27.1 22.6 7.0 28 10.8 W 20 28 11 15 1011.9 1011.9 0.0
24/12:30pm 27.2 23.7 7.1 28 10.8 NW 15 24 8 13 1012.0 1012.1 0.0
24/12:00pm 25.8 23.3 12.3 43 7.9 NW 17 24 9 13 1012.6 1012.6 0.0
24/11:30am 24.0 23.3 14.4 55 5.7 NW 11 17 6 9 1012.8 1012.8 0.0
24/11:00am 21.4 21.7 15.0 67 3.8 NW 7 15 4 8 1012.7 1012.7 0.0
24/10:30am 18.6 19.1 14.9 79 2.2 NNW 6 9 3 5 1012.9 1012.9 0.0
24/10:00am 17.6 17.8 14.7 83 1.7 N 7 11 4 6 1012.7 1012.7 0.0
24/09:30am 15.2 15.5 14.6 96 0.3 NNW 6 7 3 4 1012.7 1012.7 0.0
24/09:00am 13.8 13.9 13.8 100 0.0 N 6 9 3 5 1012.7 1012.7 0.0
24/08:30am 13.4 13.3 13.4 100 0.0 N 6 7 3 4 1012.9 1012.9 0.0
24/08:00am 13.0 12.8 13.0 100 0.0 NE 6 7 3 4 1012.8 1012.8 0.0
24/07:30am 13.0 12.8 13.0 100 0.0 ENE 6 7 3 4 1012.7 1012.7 0.0
24/07:00am 13.0 12.6 13.0 100 0.0 ENE 7 11 4 6 1012.5 1012.5 0.0
24/06:30am 13.2 12.9 13.2 100 0.0 ENE 7 11 4 6 1012.3 1012.4 0.0
24/06:00am 13.3 13.0 13.3 100 0.0 ENE 7 11 4 6 1012.5 1012.5 0.0
24/05:30am 13.4 13.1 13.4 100 0.0 ENE 7 11 4 6 1012.6 1012.6 0.0
24/05:00am 13.5 13.5 13.5 100 0.0 E 6 7 3 4 1012.6 1012.6 0.0
24/04:30am 13.6 13.4 13.6 100 0.0 E 7 15 4 8 1012.5 1012.5 0.0
24/04:00am 13.6 12.6 13.4 99 0.1 ESE 11 17 6 9 1012.6 1012.6 0.0
24/03:30am 13.6 13.0 13.4 99 0.1 ESE 9 15 5 8 1013.0 1013.0 0.0
24/03:00am 13.7 12.7 13.5 99 0.1 E 11 15 6 8 1013.1 1013.1 0.0
24/02:30am 13.8 13.2 13.6 99 0.1 ESE 9 15 5 8 1013.2 1013.2 0.0
24/02:00am 13.9 13.0 13.6 98 0.2 ESE 11 17 6 9 1013.5 1013.5 0.0
24/01:30am 14.0 12.6 13.5 97 0.3 ESE 13 20 7 11 1014.0 1014.0 0.0
24/01:00am 14.3 13.7 13.5 95 0.4 ESE 9 13 5 7 1014.5 1014.5 0.0
24/12:30am 14.6 13.7 13.6 94 0.6 E 11 20 6 11 1014.9 1014.9 0.0
24/12:00am 14.7 13.0 13.7 94 0.6 E 15 22 8 12 1015.1 1015.1 0.0
 
Date/Time
EDT
Temp
°C
App
Temp
°C
Dew
Point
Rel
Hum
%
Delta-T
°C
Wind Press
QNH
hPa
Press
MSL
hPa
Rain
since 9 am
mm
Dir
 
Spd
km/h
Gust
km/h
Spd
kts
Gust
kts
23/11:30pm 14.8 12.7 13.5 92 0.7 E 17 28 9 15 1015.3 1015.3 0.0
23/11:00pm 15.4 12.9 14.1 92 0.7 ESE 20 30 11 16 1015.6 1015.6 0.0
23/10:30pm 15.4 13.2 14.3 93 0.6 ESE 19 30 10 16 1015.7 1015.7 0.0
23/10:00pm 15.3 12.8 14.2 93 0.6 ESE 20 28 11 15 1015.7 1015.7 0.0
23/09:30pm 14.9 12.0 13.9 94 0.6 ESE 22 32 12 17 1015.6 1015.6 0.0
23/09:00pm 14.3 12.3 14.0 98 0.2 ESE 17 24 9 13 1015.5 1015.5 0.0
23/08:30pm 14.0 12.2 13.4 96 0.3 SE 15 22 8 12 1015.3 1015.3 0.0
23/08:00pm 14.8 13.3 13.2 90 0.9 SE 13 20 7 11 1015.4 1015.4 0.0
23/07:30pm 16.2 13.9 13.1 82 1.7 SE 17 26 9 14 1015.3 1015.3 0.0
23/07:00pm 17.8 15.2 13.3 75 2.6 ESE 19 28 10 15 1015.1 1015.1 0.0
23/06:30pm 18.4 15.2 13.1 71 3.0 SE 22 32 12 17 1015.1 1015.1 0.0
23/06:00pm 19.2 16.0 13.2 68 3.4 SE 22 32 12 17 1015.1 1015.1 0.0
23/05:30pm 20.0 16.8 13.0 64 4.0 SE 22 32 12 17 1015.1 1015.1 0.0
23/05:00pm 20.8 17.6 13.0 61 4.5 ESE 22 30 12 16 1015.2 1015.2 0.0
23/04:30pm 20.7 17.8 12.9 61 4.5 SE 20 33 11 18 1015.4 1015.4 0.0
23/04:00pm 20.5 17.2 12.7 61 4.5 ESE 22 32 12 17 1015.5 1015.5 0.0
23/03:30pm 20.8 17.8 12.5 59 4.7 ESE 20 30 11 16 1015.9 1016.0 0.0
23/03:00pm 20.8 18.1 12.8 60 4.6 ESE 19 30 10 16 1016.1 1016.2 0.0
23/02:30pm 21.0 18.7 12.9 60 4.7 ESE 17 28 9 15 1016.6 1016.7 0.0
23/02:00pm 19.7 17.3 12.7 64 4.0 SE 17 30 9 16 1017.2 1017.2 0.0
23/01:30pm 18.8 16.3 12.3 66 3.7 ESE 17 28 9 15 1017.6 1017.6 0.0
23/01:00pm 18.3 15.9 12.5 69 3.3 ESE 17 26 9 14 1017.8 1017.8 0.0
23/12:30pm 17.8 15.5 12.9 73 2.8 ESE 17 24 9 13 1018.1 1018.1 0.0
23/12:00pm 17.5 15.2 13.0 75 2.5 SE 17 24 9 13 1018.6 1018.6 0.0
23/11:30am 16.0 13.7 13.1 83 1.6 ESE 17 22 9 12 1019.3 1019.3 0.0
23/11:00am 15.1 13.2 13.1 88 1.1 SSE 15 24 8 13 1019.5 1019.6 0.0
23/10:30am 14.3 12.5 13.2 93 0.6 SE 15 20 8 11 1019.6 1019.7 0.0
23/10:00am 13.3 11.9 13.3 100 0.0 SE 13 17 7 9 1019.9 1020.0 0.0
23/09:30am 12.9 11.3 12.9 100 0.0 SE 13 22 7 12 1020.0 1020.1 0.0
23/09:00am 12.6 10.9 12.6 100 0.0 SSE 13 20 7 11 1020.2 1020.3 0.0
23/08:30am 12.4 11.1 12.4 100 0.0 SSE 11 19 6 10 1020.1 1020.2 0.0
23/08:00am 12.2 10.8 12.2 100 0.0 S 11 15 6 8 1019.9 1020.0 0.0
23/07:30am 12.1 10.7 12.1 100 0.0 S 11 15 6 8 1019.8 1019.9 0.0
23/07:00am 11.9 10.8 11.9 100 0.0 S 9 15 5 8 1019.7 1019.8 0.0
23/06:30am 11.9 10.8 11.9 100 0.0 S 9 15 5 8 1019.5 1019.6 0.0
23/06:00am 11.9 11.2 11.9 100 0.0 S 7 11 4 6 1019.4 1019.4 0.0
23/05:30am 11.8 11.0 11.8 100 0.0 S 7 11 4 6 1019.3 1019.3 0.0
23/05:00am 11.7 10.1 11.7 100 0.0 SSE 11 15 6 8 1019.2 1019.2 0.0
23/04:30am 11.6 10.4 11.6 100 0.0 S 9 13 5 7 1019.4 1019.4 0.0
23/04:00am 11.6 9.6 11.6 100 0.0 S 13 17 7 9 1019.4 1019.4 0.0
23/03:30am 11.8 10.3 11.8 100 0.0 S 11 19 6 10 1019.3 1019.3 0.0
23/03:00am 11.8 10.7 11.8 100 0.0 S 9 15 5 8 1019.3 1019.3 0.0
23/02:30am 11.9 10.0 11.9 100 0.0 S 13 20 7 11 1019.5 1019.6 0.0
23/02:00am 12.0 9.7 11.8 99 0.1 SSW 15 22 8 12 1019.7 1019.8 0.0
23/01:30am 12.0 10.1 11.8 99 0.1 SSW 13 19 7 10 1019.8 1019.9 0.0
23/01:00am 12.3 10.5 12.1 99 0.1 S 13 17 7 9 1020.0 1020.1 0.0
23/12:30am 12.3 10.9 12.1 99 0.1 S 11 15 6 8 1020.0 1020.1 0.0
23/12:00am 12.3 10.9 12.3 100 0.0 SSW 11 17 6 9 1019.7 1019.8 0.0
 
Date/Time
EDT
Temp
°C
App
Temp
°C
Dew
Point
Rel
Hum
%
Delta-T
°C
Wind Press
QNH
hPa
Press
MSL
hPa
Rain
since 9 am
mm
Dir
 
Spd
km/h
Gust
km/h
Spd
kts
Gust
kts
22/11:30pm 12.6 11.6 12.4 99 0.1 SSW 9 15 5 8 1020.1 1020.2 0.0
22/11:00pm 12.6 10.9 12.6 100 0.0 S 13 20 7 11 1020.0 1020.1 0.0
22/10:30pm 12.7 10.7 12.7 100 0.0 SSW 15 20 8 11 1020.1 1020.2 0.0
22/10:00pm 12.9 10.9 12.7 99 0.1 SSW 15 20 8 11 1020.2 1020.3 0.0
22/09:30pm 13.2 10.5 13.0 99 0.1 SSW 19 30 10 16 1019.9 1020.0 0.0

Other Formats:

Comma delimited format used in spreadsheet applications
http://www.bom.gov.au/fwo/IDV60801/IDV60801.95840.axf

JavaScript Object Notation format (JSON) in row-major order
http://www.bom.gov.au/fwo/IDV60801/IDV60801.95840.json